N172ZB KCRP-KAUS
Flight info
| Callsign | N172ZB |
|---|---|
| Flight time | 1h 45m |
| Altitude | 8000 |
| Route | ATHIS CARTI LEMIG SAT PINCH HOUKM |
| Aircraft | C172/L-VGD/C |
Departure
| Time | 2026-04-25 20:57 |
|---|---|
| Airport | Corpus Christi International Airport (KCRP) |
Arrival
| Time | 2026-04-25 22:42 |
|---|---|
| Airport | Austin Bergstrom International Airport (KAUS) |
| Time | Latitude | Longitude | Altitude | Speed | Heading |
|---|---|---|---|---|---|
| 2026-04-25 20:56 | 27.87706 | -97.57201 | 5378 ft | 97 kts | 309° |
| 2026-04-25 20:57 | 27.88137 | -97.57785 | 5550 ft | 97 kts | 308° |
| 2026-04-25 20:57 | 27.88571 | -97.58370 | 5747 ft | 97 kts | 309° |
| 2026-04-25 20:57 | 27.89001 | -97.58955 | 5973 ft | 96 kts | 310° |
| 2026-04-25 20:57 | 27.89425 | -97.59529 | 6183 ft | 94 kts | 311° |
| 2026-04-25 20:58 | 27.89841 | -97.60091 | 6388 ft | 93 kts | 311° |
| 2026-04-25 20:58 | 27.90249 | -97.60644 | 6609 ft | 92 kts | 311° |
| 2026-04-25 20:58 | 27.90658 | -97.61199 | 6829 ft | 92 kts | 311° |
| 2026-04-25 20:58 | 27.91072 | -97.61760 | 7021 ft | 92 kts | 311° |
| 2026-04-25 20:59 | 27.91478 | -97.62311 | 7212 ft | 90 kts | 311° |
| 2026-04-25 20:59 | 27.91886 | -97.62864 | 7326 ft | 93 kts | 310° |
| 2026-04-25 20:59 | 27.92298 | -97.63423 | 7451 ft | 92 kts | 311° |
| 2026-04-25 20:59 | 27.92702 | -97.63969 | 7606 ft | 90 kts | 311° |
| 2026-04-25 21:00 | 27.93100 | -97.64508 | 7742 ft | 90 kts | 310° |
| 2026-04-25 21:00 | 27.93230 | -97.64686 | 7781 ft | 90 kts | 310° |
| 2026-04-25 21:00 | 27.94321 | -97.66161 | 7994 ft | 101 kts | 311° |
| 2026-04-25 21:01 | 27.94774 | -97.66774 | 7998 ft | 103 kts | 311° |
| 2026-04-25 21:01 | 27.95230 | -97.67391 | 7983 ft | 102 kts | 311° |
| 2026-04-25 21:01 | 27.95683 | -97.68006 | 7979 ft | 102 kts | 311° |
| 2026-04-25 21:01 | 27.96132 | -97.68617 | 7973 ft | 100 kts | 311° |
| 2026-04-25 21:02 | 27.96573 | -97.69215 | 7976 ft | 98 kts | 311° |
| 2026-04-25 21:02 | 27.97006 | -97.69804 | 7972 ft | 98 kts | 311° |
| 2026-04-25 21:02 | 27.97438 | -97.70392 | 7974 ft | 97 kts | 311° |
| 2026-04-25 21:02 | 27.97869 | -97.70976 | 7975 ft | 97 kts | 311° |
| 2026-04-25 21:03 | 27.98304 | -97.71567 | 7971 ft | 98 kts | 311° |
| 2026-04-25 21:03 | 27.98742 | -97.72163 | 7968 ft | 99 kts | 311° |
| 2026-04-25 21:03 | 27.99181 | -97.72758 | 7972 ft | 98 kts | 311° |
| 2026-04-25 21:03 | 27.99618 | -97.73352 | 7968 ft | 100 kts | 311° |
| 2026-04-25 21:04 | 28.00059 | -97.73952 | 7970 ft | 99 kts | 311° |
| 2026-04-25 21:04 | 28.00499 | -97.74551 | 7965 ft | 99 kts | 311° |
| 2026-04-25 21:04 | 28.00940 | -97.75148 | 7961 ft | 99 kts | 311° |
| 2026-04-25 21:04 | 28.01380 | -97.75747 | 7963 ft | 98 kts | 311° |
| 2026-04-25 21:05 | 28.01814 | -97.76338 | 7966 ft | 97 kts | 311° |
| 2026-04-25 21:05 | 28.02248 | -97.76926 | 7964 ft | 98 kts | 311° |
| 2026-04-25 21:05 | 28.02685 | -97.77521 | 7957 ft | 99 kts | 311° |
| 2026-04-25 21:05 | 28.03122 | -97.78116 | 7958 ft | 98 kts | 311° |
| 2026-04-25 21:06 | 28.03559 | -97.78711 | 7957 ft | 99 kts | 311° |
| 2026-04-25 21:06 | 28.03998 | -97.79308 | 7958 ft | 100 kts | 311° |
| 2026-04-25 21:06 | 28.04440 | -97.79911 | 7972 ft | 100 kts | 311° |
| 2026-04-25 21:06 | 28.04740 | -97.80317 | 7981 ft | 100 kts | 311° |
| 2026-04-25 21:07 | 28.05334 | -97.81125 | 7976 ft | 101 kts | 311° |
| 2026-04-25 21:07 | 28.05782 | -97.81737 | 7976 ft | 102 kts | 310° |
| 2026-04-25 21:07 | 28.06234 | -97.82350 | 7978 ft | 101 kts | 311° |
| 2026-04-25 21:07 | 28.06679 | -97.82960 | 7970 ft | 101 kts | 310° |
| 2026-04-25 21:08 | 28.07124 | -97.83564 | 7973 ft | 99 kts | 310° |
| 2026-04-25 21:08 | 28.07503 | -97.84211 | 7965 ft | 99 kts | 295° |
| 2026-04-25 21:08 | 28.07802 | -97.84919 | 7962 ft | 100 kts | 298° |
| 2026-04-25 21:08 | 28.08105 | -97.85629 | 7965 ft | 100 kts | 298° |
| 2026-04-25 21:09 | 28.08714 | -97.87049 | 7975 ft | 101 kts | 298° |
| 2026-04-25 21:09 | 28.09018 | -97.87758 | 7971 ft | 102 kts | 297° |
| 2026-04-25 21:09 | 28.09326 | -97.88477 | 7970 ft | 101 kts | 298° |
| 2026-04-25 21:10 | 28.09628 | -97.89182 | 7980 ft | 99 kts | 298° |
| 2026-04-25 21:10 | 28.09926 | -97.89878 | 7965 ft | 98 kts | 298° |
| 2026-04-25 21:10 | 28.10222 | -97.90570 | 7957 ft | 98 kts | 298° |
| 2026-04-25 21:10 | 28.10520 | -97.91261 | 7959 ft | 98 kts | 298° |
| 2026-04-25 21:11 | 28.10820 | -97.91967 | 7968 ft | 100 kts | 298° |
| 2026-04-25 21:11 | 28.11125 | -97.92678 | 7979 ft | 100 kts | 298° |
| 2026-04-25 21:11 | 28.11432 | -97.93396 | 7977 ft | 103 kts | 297° |
| 2026-04-25 21:11 | 28.11745 | -97.94125 | 7978 ft | 103 kts | 297° |
| 2026-04-25 21:12 | 28.12061 | -97.94861 | 7975 ft | 104 kts | 298° |
| 2026-04-25 21:12 | 28.12377 | -97.95602 | 7977 ft | 105 kts | 298° |
| 2026-04-25 21:12 | 28.12695 | -97.96342 | 7964 ft | 104 kts | 298° |
| 2026-04-25 21:12 | 28.12903 | -97.96831 | 7961 ft | 104 kts | 298° |
| 2026-04-25 21:13 | 28.13321 | -97.97811 | 7967 ft | 103 kts | 296° |
| 2026-04-25 21:13 | 28.13632 | -97.98540 | 7971 ft | 102 kts | 296° |
| 2026-04-25 21:13 | 28.13943 | -97.99266 | 7964 ft | 102 kts | 296° |
| 2026-04-25 21:13 | 28.14251 | -97.99989 | 7962 ft | 102 kts | 295° |
| 2026-04-25 21:14 | 28.14560 | -98.00710 | 7956 ft | 102 kts | 295° |
| 2026-04-25 21:14 | 28.14868 | -98.01432 | 7953 ft | 101 kts | 296° |
| 2026-04-25 21:14 | 28.15174 | -98.02147 | 7956 ft | 100 kts | 296° |
| 2026-04-25 21:14 | 28.15477 | -98.02856 | 7950 ft | 100 kts | 296° |
| 2026-04-25 21:15 | 28.15780 | -98.03567 | 7950 ft | 100 kts | 296° |
| 2026-04-25 21:15 | 28.16085 | -98.04282 | 7951 ft | 101 kts | 296° |
| 2026-04-25 21:15 | 28.16524 | -98.04876 | 7958 ft | 102 kts | 327° |
| 2026-04-25 21:15 | 28.17167 | -98.05236 | 7964 ft | 104 kts | 331° |
| 2026-04-25 21:16 | 28.17824 | -98.05599 | 7960 ft | 106 kts | 331° |
| 2026-04-25 21:16 | 28.18485 | -98.05964 | 7959 ft | 105 kts | 331° |
| 2026-04-25 21:16 | 28.19143 | -98.06328 | 7960 ft | 106 kts | 331° |
| 2026-04-25 21:16 | 28.19805 | -98.06693 | 7956 ft | 105 kts | 332° |
| 2026-04-25 21:17 | 28.20467 | -98.07059 | 7966 ft | 106 kts | 332° |
| 2026-04-25 21:17 | 28.21139 | -98.07431 | 7959 ft | 108 kts | 332° |
| 2026-04-25 21:17 | 28.21821 | -98.07808 | 7962 ft | 110 kts | 330° |
| 2026-04-25 21:17 | 28.22508 | -98.08187 | 7957 ft | 110 kts | 332° |
| 2026-04-25 21:18 | 28.23199 | -98.08568 | 7962 ft | 112 kts | 331° |
| 2026-04-25 21:18 | 28.23898 | -98.08956 | 7954 ft | 111 kts | 332° |
| 2026-04-25 21:18 | 28.24582 | -98.09334 | 7954 ft | 110 kts | 331° |
| 2026-04-25 21:18 | 28.25264 | -98.09712 | 7949 ft | 108 kts | 331° |
| 2026-04-25 21:19 | 28.25938 | -98.10084 | 7950 ft | 107 kts | 330° |
| 2026-04-25 21:19 | 28.26607 | -98.10454 | 7946 ft | 107 kts | 332° |
| 2026-04-25 21:19 | 28.27273 | -98.10823 | 7946 ft | 107 kts | 332° |
| 2026-04-25 21:19 | 28.27946 | -98.11194 | 7948 ft | 107 kts | 332° |
| 2026-04-25 21:20 | 28.28614 | -98.11564 | 7949 ft | 107 kts | 332° |
| 2026-04-25 21:20 | 28.29059 | -98.11811 | 7946 ft | 107 kts | 331° |
| 2026-04-25 21:20 | 28.29950 | -98.12304 | 7949 ft | 105 kts | 330° |
| 2026-04-25 21:20 | 28.30602 | -98.12666 | 7948 ft | 104 kts | 331° |
| 2026-04-25 21:21 | 28.31256 | -98.13028 | 7947 ft | 105 kts | 332° |
| 2026-04-25 21:21 | 28.31903 | -98.13387 | 7945 ft | 105 kts | 332° |
| 2026-04-25 21:21 | 28.32554 | -98.13746 | 7946 ft | 104 kts | 332° |
| 2026-04-25 21:21 | 28.33200 | -98.14104 | 7946 ft | 103 kts | 330° |
| 2026-04-25 21:22 | 28.33843 | -98.14461 | 7943 ft | 103 kts | 330° |
| 2026-04-25 21:22 | 28.34492 | -98.14821 | 7943 ft | 104 kts | 330° |
| 2026-04-25 21:22 | 28.35141 | -98.15181 | 7942 ft | 104 kts | 331° |
| 2026-04-25 21:22 | 28.35797 | -98.15544 | 7941 ft | 105 kts | 331° |
| 2026-04-25 21:23 | 28.36453 | -98.15908 | 7945 ft | 105 kts | 331° |
| 2026-04-25 21:23 | 28.37108 | -98.16271 | 7947 ft | 104 kts | 330° |
| 2026-04-25 21:23 | 28.37759 | -98.16631 | 7943 ft | 104 kts | 330° |
| 2026-04-25 21:23 | 28.38412 | -98.16992 | 7944 ft | 104 kts | 330° |
| 2026-04-25 21:24 | 28.39060 | -98.17353 | 7940 ft | 106 kts | 332° |
| 2026-04-25 21:24 | 28.39725 | -98.17720 | 7941 ft | 107 kts | 331° |
| 2026-04-25 21:24 | 28.40389 | -98.18090 | 7938 ft | 106 kts | 331° |
| 2026-04-25 21:24 | 28.41054 | -98.18458 | 7941 ft | 107 kts | 331° |
| 2026-04-25 21:25 | 28.41718 | -98.18827 | 7938 ft | 106 kts | 331° |
| 2026-04-25 21:25 | 28.42387 | -98.19198 | 7938 ft | 108 kts | 331° |
| 2026-04-25 21:25 | 28.43066 | -98.19575 | 7956 ft | 109 kts | 332° |
| 2026-04-25 21:25 | 28.43753 | -98.19957 | 7961 ft | 110 kts | 331° |
| 2026-04-25 21:26 | 28.44444 | -98.20338 | 7964 ft | 110 kts | 331° |
| 2026-04-25 21:26 | 28.45128 | -98.20720 | 7962 ft | 109 kts | 331° |
| 2026-04-25 21:26 | 28.45807 | -98.21097 | 7960 ft | 108 kts | 331° |
| 2026-04-25 21:26 | 28.46483 | -98.21472 | 7959 ft | 108 kts | 331° |
| 2026-04-25 21:27 | 28.47150 | -98.21843 | 7955 ft | 109 kts | 332° |
| 2026-04-25 21:27 | 28.47830 | -98.22221 | 7955 ft | 109 kts | 331° |
| 2026-04-25 21:27 | 28.48510 | -98.22598 | 7957 ft | 109 kts | 330° |
| 2026-04-25 21:27 | 28.49191 | -98.22977 | 7959 ft | 109 kts | 331° |
| 2026-04-25 21:28 | 28.49877 | -98.23358 | 7962 ft | 110 kts | 331° |
| 2026-04-25 21:28 | 28.50569 | -98.23743 | 7962 ft | 111 kts | 332° |
| 2026-04-25 21:28 | 28.51258 | -98.24126 | 7963 ft | 110 kts | 332° |
| 2026-04-25 21:28 | 28.51945 | -98.24508 | 7960 ft | 110 kts | 332° |
| 2026-04-25 21:29 | 28.52627 | -98.24888 | 7955 ft | 109 kts | 331° |
| 2026-04-25 21:29 | 28.53307 | -98.25266 | 7952 ft | 109 kts | 331° |
| 2026-04-25 21:29 | 28.53984 | -98.25642 | 7951 ft | 108 kts | 331° |
| 2026-04-25 21:29 | 28.54659 | -98.26017 | 7949 ft | 108 kts | 332° |
| 2026-04-25 21:30 | 28.55327 | -98.26389 | 7952 ft | 108 kts | 330° |
| 2026-04-25 21:30 | 28.56005 | -98.26767 | 7952 ft | 109 kts | 331° |
| 2026-04-25 21:30 | 28.56682 | -98.27144 | 7952 ft | 108 kts | 330° |
| 2026-04-25 21:30 | 28.57130 | -98.27393 | 7958 ft | 108 kts | 331° |
| 2026-04-25 21:31 | 28.58021 | -98.27889 | 7979 ft | 107 kts | 331° |
| 2026-04-25 21:31 | 28.58695 | -98.28264 | 7979 ft | 108 kts | 332° |
| 2026-04-25 21:31 | 28.59371 | -98.28640 | 7981 ft | 108 kts | 331° |
| 2026-04-25 21:31 | 28.60043 | -98.29015 | 7981 ft | 107 kts | 330° |
| 2026-04-25 21:32 | 28.60710 | -98.29387 | 7976 ft | 106 kts | 330° |
| 2026-04-25 21:32 | 28.61375 | -98.29757 | 7972 ft | 107 kts | 331° |
| 2026-04-25 21:32 | 28.62042 | -98.30129 | 7976 ft | 107 kts | 332° |
| 2026-04-25 21:32 | 28.62704 | -98.30496 | 7973 ft | 107 kts | 332° |
| 2026-04-25 21:33 | 28.63373 | -98.30869 | 7980 ft | 107 kts | 331° |
| 2026-04-25 21:33 | 28.64043 | -98.31243 | 7980 ft | 108 kts | 330° |
| 2026-04-25 21:33 | 28.64716 | -98.31618 | 7981 ft | 108 kts | 331° |
| 2026-04-25 21:33 | 28.65394 | -98.31996 | 7984 ft | 109 kts | 330° |
| 2026-04-25 21:34 | 28.66074 | -98.32375 | 7975 ft | 109 kts | 332° |
| 2026-04-25 21:34 | 28.66757 | -98.32755 | 7977 ft | 109 kts | 332° |
| 2026-04-25 21:34 | 28.67435 | -98.33135 | 7977 ft | 109 kts | 332° |
| 2026-04-25 21:34 | 28.68114 | -98.33514 | 7976 ft | 108 kts | 330° |
| 2026-04-25 21:35 | 28.68789 | -98.33890 | 7975 ft | 108 kts | 332° |
| 2026-04-25 21:35 | 28.69451 | -98.34260 | 7977 ft | 107 kts | 331° |
| 2026-04-25 21:35 | 28.70122 | -98.34636 | 8004 ft | 108 kts | 330° |
| 2026-04-25 21:35 | 28.70804 | -98.35016 | 8005 ft | 110 kts | 329° |
| 2026-04-25 21:36 | 28.71492 | -98.35401 | 8006 ft | 110 kts | 330° |
| 2026-04-25 21:36 | 28.72183 | -98.35787 | 8010 ft | 111 kts | 328° |
| 2026-04-25 21:36 | 28.72879 | -98.36175 | 8010 ft | 111 kts | 330° |
| 2026-04-25 21:36 | 28.73573 | -98.36564 | 8013 ft | 111 kts | 330° |
| 2026-04-25 21:37 | 28.74272 | -98.36953 | 8007 ft | 113 kts | 330° |
| 2026-04-25 21:37 | 28.74501 | -98.37081 | 8007 ft | 113 kts | 330° |
| 2026-04-25 21:37 | 28.75667 | -98.37733 | 8006 ft | 113 kts | 330° |
| 2026-04-25 21:37 | 28.76370 | -98.38126 | 8002 ft | 112 kts | 328° |
| 2026-04-25 21:38 | 28.77064 | -98.38514 | 8001 ft | 111 kts | 328° |
| 2026-04-25 21:38 | 28.77758 | -98.38902 | 8004 ft | 111 kts | 331° |
| 2026-04-25 21:38 | 28.78459 | -98.39294 | 7976 ft | 112 kts | 329° |
| 2026-04-25 21:38 | 28.79154 | -98.39683 | 7976 ft | 111 kts | 330° |
| 2026-04-25 21:39 | 28.79845 | -98.40070 | 7970 ft | 110 kts | 328° |
| 2026-04-25 21:39 | 28.80533 | -98.40454 | 7967 ft | 110 kts | 329° |
| 2026-04-25 21:39 | 28.81217 | -98.40837 | 7967 ft | 109 kts | 329° |
| 2026-04-25 21:39 | 28.81901 | -98.41219 | 7969 ft | 110 kts | 330° |
| 2026-04-25 21:40 | 28.82588 | -98.41603 | 7969 ft | 109 kts | 328° |
| 2026-04-25 21:40 | 28.83263 | -98.41982 | 7969 ft | 110 kts | 329° |
| 2026-04-25 21:40 | 28.83950 | -98.42368 | 7969 ft | 110 kts | 328° |
| 2026-04-25 21:40 | 28.84638 | -98.42752 | 7969 ft | 110 kts | 330° |
| 2026-04-25 21:41 | 28.85326 | -98.43138 | 7971 ft | 111 kts | 330° |
| 2026-04-25 21:41 | 28.86024 | -98.43528 | 7973 ft | 112 kts | 330° |
| 2026-04-25 21:41 | 28.86719 | -98.43917 | 7996 ft | 111 kts | 329° |
| 2026-04-25 21:41 | 28.87417 | -98.44308 | 7995 ft | 112 kts | 329° |
| 2026-04-25 21:42 | 28.88114 | -98.44698 | 7998 ft | 111 kts | 329° |
| 2026-04-25 21:42 | 28.88807 | -98.45086 | 7998 ft | 111 kts | 328° |
| 2026-04-25 21:42 | 28.89499 | -98.45475 | 7997 ft | 111 kts | 331° |
| 2026-04-25 21:42 | 28.90183 | -98.45858 | 7996 ft | 111 kts | 329° |
| 2026-04-25 21:43 | 28.90874 | -98.46246 | 7998 ft | 111 kts | 330° |
| 2026-04-25 21:43 | 28.91566 | -98.46634 | 7996 ft | 111 kts | 328° |
| 2026-04-25 21:43 | 28.92256 | -98.47020 | 7995 ft | 110 kts | 330° |
| 2026-04-25 21:43 | 28.92944 | -98.47406 | 7995 ft | 110 kts | 329° |
| 2026-04-25 21:44 | 28.93632 | -98.47793 | 7994 ft | 110 kts | 330° |
| 2026-04-25 21:44 | 28.94323 | -98.48180 | 7992 ft | 110 kts | 329° |
| 2026-04-25 21:44 | 28.95697 | -98.48953 | 7995 ft | 111 kts | 329° |
| 2026-04-25 21:45 | 28.96391 | -98.49341 | 7995 ft | 111 kts | 329° |
| 2026-04-25 21:45 | 28.96617 | -98.49468 | 7996 ft | 111 kts | 329° |
| 2026-04-25 21:45 | 28.97807 | -98.50067 | 7991 ft | 115 kts | 348° |
| 2026-04-25 21:45 | 28.98596 | -98.49914 | 8000 ft | 119 kts | 14° |
| 2026-04-25 21:46 | 28.99399 | -98.49653 | 7999 ft | 121 kts | 13° |
| 2026-04-25 21:46 | 29.00206 | -98.49384 | 7998 ft | 121 kts | 13° |
| 2026-04-25 21:46 | 29.01011 | -98.49117 | 7999 ft | 120 kts | 14° |
| 2026-04-25 21:46 | 29.01815 | -98.48853 | 7997 ft | 120 kts | 13° |
| 2026-04-25 21:47 | 29.02618 | -98.48588 | 7994 ft | 120 kts | 13° |
| 2026-04-25 21:47 | 29.03417 | -98.48324 | 7993 ft | 119 kts | 14° |
| 2026-04-25 21:47 | 29.04208 | -98.48063 | 7992 ft | 118 kts | 14° |
| 2026-04-25 21:47 | 29.04990 | -98.47805 | 7990 ft | 119 kts | 13° |
| 2026-04-25 21:48 | 29.05785 | -98.47544 | 7988 ft | 119 kts | 13° |
| 2026-04-25 21:48 | 29.06582 | -98.47280 | 7988 ft | 119 kts | 14° |
| 2026-04-25 21:48 | 29.07376 | -98.47017 | 7985 ft | 118 kts | 13° |
| 2026-04-25 21:48 | 29.08169 | -98.46756 | 7982 ft | 119 kts | 14° |
| 2026-04-25 21:49 | 29.08968 | -98.46493 | 7985 ft | 120 kts | 14° |
| 2026-04-25 21:49 | 29.09771 | -98.46227 | 7983 ft | 120 kts | 14° |
| 2026-04-25 21:49 | 29.10569 | -98.45962 | 7983 ft | 119 kts | 13° |
| 2026-04-25 21:49 | 29.11369 | -98.45698 | 7981 ft | 120 kts | 13° |
| 2026-04-25 21:50 | 29.12172 | -98.45433 | 7981 ft | 120 kts | 14° |
| 2026-04-25 21:50 | 29.12963 | -98.45171 | 7979 ft | 120 kts | 14° |
| 2026-04-25 21:50 | 29.13761 | -98.44907 | 7976 ft | 119 kts | 13° |
| 2026-04-25 21:50 | 29.14300 | -98.44730 | 7969 ft | 119 kts | 14° |
| 2026-04-25 21:51 | 29.15356 | -98.44381 | 7965 ft | 119 kts | 14° |
| 2026-04-25 21:51 | 29.16151 | -98.44118 | 7965 ft | 118 kts | 14° |
| 2026-04-25 21:51 | 29.16943 | -98.43857 | 7962 ft | 118 kts | 13° |
| 2026-04-25 21:51 | 29.17730 | -98.43596 | 7936 ft | 118 kts | 13° |
| 2026-04-25 21:52 | 29.18523 | -98.43333 | 7941 ft | 118 kts | 14° |
| 2026-04-25 21:52 | 29.19317 | -98.43071 | 7944 ft | 119 kts | 14° |
| 2026-04-25 21:52 | 29.20099 | -98.42812 | 7944 ft | 119 kts | 13° |
| 2026-04-25 21:52 | 29.20895 | -98.42548 | 7945 ft | 119 kts | 13° |
| 2026-04-25 21:53 | 29.21692 | -98.42284 | 7948 ft | 119 kts | 14° |
| 2026-04-25 21:53 | 29.22485 | -98.42021 | 7950 ft | 118 kts | 14° |
| 2026-04-25 21:53 | 29.23274 | -98.41760 | 7948 ft | 118 kts | 13° |
| 2026-04-25 21:53 | 29.24062 | -98.41498 | 7946 ft | 118 kts | 13° |
| 2026-04-25 21:54 | 29.24852 | -98.41237 | 7948 ft | 118 kts | 14° |
| 2026-04-25 21:54 | 29.25640 | -98.40975 | 7949 ft | 118 kts | 14° |
| 2026-04-25 21:54 | 29.26427 | -98.40714 | 7952 ft | 118 kts | 14° |
| 2026-04-25 21:54 | 29.27219 | -98.40452 | 7953 ft | 119 kts | 13° |
| 2026-04-25 21:55 | 29.27749 | -98.40277 | 7958 ft | 120 kts | 14° |
| 2026-04-25 21:55 | 29.28554 | -98.40009 | 7962 ft | 121 kts | 15° |
| 2026-04-25 21:55 | 29.29361 | -98.39741 | 7962 ft | 121 kts | 14° |
| 2026-04-25 21:55 | 29.30168 | -98.39473 | 7964 ft | 121 kts | 14° |
| 2026-04-25 21:56 | 29.30977 | -98.39205 | 7965 ft | 121 kts | 14° |
| 2026-04-25 21:56 | 29.31782 | -98.38938 | 7967 ft | 120 kts | 15° |
| 2026-04-25 21:56 | 29.32579 | -98.38674 | 7965 ft | 119 kts | 14° |
| 2026-04-25 21:56 | 29.33373 | -98.38410 | 7964 ft | 120 kts | 13° |
| 2026-04-25 21:57 | 29.34161 | -98.38149 | 7968 ft | 119 kts | 14° |
| 2026-04-25 21:57 | 29.34958 | -98.37885 | 7968 ft | 119 kts | 14° |
| 2026-04-25 21:57 | 29.35751 | -98.37621 | 7968 ft | 119 kts | 14° |
| 2026-04-25 21:57 | 29.36546 | -98.37357 | 7968 ft | 119 kts | 13° |
| 2026-04-25 21:58 | 29.37347 | -98.37091 | 7976 ft | 120 kts | 14° |
| 2026-04-25 21:58 | 29.38151 | -98.36823 | 7979 ft | 120 kts | 15° |
| 2026-04-25 21:58 | 29.38954 | -98.36557 | 7978 ft | 121 kts | 14° |
| 2026-04-25 21:58 | 29.39763 | -98.36288 | 7980 ft | 121 kts | 14° |
| 2026-04-25 21:59 | 29.40573 | -98.36019 | 7981 ft | 121 kts | 14° |
| 2026-04-25 21:59 | 29.41380 | -98.35750 | 7986 ft | 120 kts | 15° |
| 2026-04-25 21:59 | 29.42185 | -98.35483 | 7984 ft | 121 kts | 14° |
| 2026-04-25 22:00 | 29.43786 | -98.34950 | 7980 ft | 120 kts | 14° |
| 2026-04-25 22:00 | 29.44591 | -98.34682 | 7985 ft | 121 kts | 15° |
| 2026-04-25 22:00 | 29.45398 | -98.34414 | 7985 ft | 121 kts | 14° |
| 2026-04-25 22:00 | 29.46206 | -98.34145 | 7982 ft | 120 kts | 14° |
| 2026-04-25 22:01 | 29.47005 | -98.33879 | 7986 ft | 119 kts | 14° |
| 2026-04-25 22:01 | 29.47797 | -98.33615 | 7985 ft | 118 kts | 14° |
| 2026-04-25 22:01 | 29.48581 | -98.33355 | 7987 ft | 118 kts | 14° |
| 2026-04-25 22:01 | 29.49104 | -98.33181 | 7983 ft | 118 kts | 14° |
| 2026-04-25 22:02 | 29.50166 | -98.32827 | 7988 ft | 119 kts | 14° |
| 2026-04-25 22:02 | 29.50960 | -98.32561 | 7987 ft | 119 kts | 15° |
| 2026-04-25 22:02 | 29.51742 | -98.32303 | 7986 ft | 118 kts | 14° |
| 2026-04-25 22:02 | 29.52533 | -98.32039 | 7985 ft | 119 kts | 14° |
| 2026-04-25 22:03 | 29.53326 | -98.31773 | 7948 ft | 118 kts | 15° |
| 2026-04-25 22:03 | 29.54118 | -98.31510 | 7946 ft | 118 kts | 14° |
| 2026-04-25 22:03 | 29.54911 | -98.31246 | 7947 ft | 119 kts | 14° |
| 2026-04-25 22:03 | 29.55708 | -98.30980 | 7949 ft | 119 kts | 14° |
| 2026-04-25 22:04 | 29.56504 | -98.30713 | 7948 ft | 119 kts | 15° |
| 2026-04-25 22:04 | 29.57298 | -98.30449 | 7957 ft | 120 kts | 13° |
| 2026-04-25 22:04 | 29.58106 | -98.30180 | 7956 ft | 121 kts | 13° |
| 2026-04-25 22:04 | 29.58921 | -98.29909 | 7957 ft | 122 kts | 14° |
| 2026-04-25 22:05 | 29.59737 | -98.29635 | 7962 ft | 121 kts | 14° |
| 2026-04-25 22:05 | 29.60533 | -98.29368 | 7958 ft | 121 kts | 13° |
| 2026-04-25 22:05 | 29.61339 | -98.29100 | 7961 ft | 120 kts | 13° |
| 2026-04-25 22:05 | 29.62141 | -98.28833 | 7965 ft | 120 kts | 14° |
| 2026-04-25 22:06 | 29.62941 | -98.28566 | 7964 ft | 119 kts | 14° |
| 2026-04-25 22:06 | 29.63736 | -98.28300 | 7960 ft | 119 kts | 13° |
| 2026-04-25 22:06 | 29.64533 | -98.28034 | 7959 ft | 120 kts | 13° |
| 2026-04-25 22:06 | 29.65334 | -98.27767 | 7963 ft | 120 kts | 14° |
| 2026-04-25 22:07 | 29.66138 | -98.27498 | 7967 ft | 120 kts | 14° |
| 2026-04-25 22:07 | 29.66672 | -98.27318 | 7964 ft | 121 kts | 13° |
| 2026-04-25 22:07 | 29.67743 | -98.26961 | 7964 ft | 121 kts | 13° |
| 2026-04-25 22:07 | 29.68555 | -98.26690 | 7965 ft | 121 kts | 14° |
| 2026-04-25 22:08 | 29.69365 | -98.26419 | 7970 ft | 121 kts | 15° |
| 2026-04-25 22:08 | 29.70171 | -98.26149 | 7967 ft | 121 kts | 14° |
| 2026-04-25 22:08 | 29.70979 | -98.25879 | 7964 ft | 121 kts | 13° |
| 2026-04-25 22:08 | 29.71785 | -98.25608 | 7965 ft | 121 kts | 13° |
| 2026-04-25 22:09 | 29.72589 | -98.25339 | 7967 ft | 120 kts | 15° |
| 2026-04-25 22:09 | 29.73395 | -98.25070 | 7966 ft | 121 kts | 14° |
| 2026-04-25 22:09 | 29.74207 | -98.24799 | 7964 ft | 122 kts | 13° |
| 2026-04-25 22:09 | 29.75011 | -98.24528 | 7966 ft | 122 kts | 13° |
| 2026-04-25 22:10 | 29.75821 | -98.24257 | 7967 ft | 121 kts | 14° |
| 2026-04-25 22:10 | 29.76630 | -98.23987 | 7967 ft | 121 kts | 14° |
| 2026-04-25 22:10 | 29.77442 | -98.23716 | 7966 ft | 122 kts | 13° |
| 2026-04-25 22:10 | 29.78256 | -98.23441 | 7968 ft | 122 kts | 13° |
| 2026-04-25 22:11 | 29.79061 | -98.23170 | 7968 ft | 120 kts | 14° |
| 2026-04-25 22:11 | 29.79864 | -98.22903 | 7964 ft | 120 kts | 13° |
| 2026-04-25 22:11 | 29.80667 | -98.22634 | 7963 ft | 120 kts | 13° |
| 2026-04-25 22:11 | 29.81460 | -98.22367 | 7967 ft | 121 kts | 14° |
| 2026-04-25 22:12 | 29.82261 | -98.22098 | 7965 ft | 120 kts | 14° |
| 2026-04-25 22:12 | 29.83064 | -98.21831 | 7961 ft | 120 kts | 14° |
| 2026-04-25 22:12 | 29.83864 | -98.21564 | 7965 ft | 120 kts | 14° |
| 2026-04-25 22:12 | 29.84396 | -98.21384 | 7966 ft | 121 kts | 14° |
| 2026-04-25 22:13 | 29.85474 | -98.21023 | 7968 ft | 121 kts | 13° |
| 2026-04-25 22:13 | 29.86285 | -98.20751 | 7970 ft | 122 kts | 12° |
| 2026-04-25 22:13 | 29.87096 | -98.20480 | 7968 ft | 121 kts | 13° |
| 2026-04-25 22:13 | 29.87906 | -98.20207 | 7971 ft | 121 kts | 13° |
| 2026-04-25 22:14 | 29.88707 | -98.19938 | 7967 ft | 120 kts | 11° |
| 2026-04-25 22:14 | 29.89501 | -98.19671 | 7967 ft | 121 kts | 11° |
| 2026-04-25 22:14 | 29.90313 | -98.19399 | 7970 ft | 121 kts | 12° |
| 2026-04-25 22:14 | 29.91122 | -98.19126 | 7976 ft | 121 kts | 14° |
| 2026-04-25 22:15 | 29.91932 | -98.18853 | 7975 ft | 122 kts | 12° |
| 2026-04-25 22:15 | 29.92750 | -98.18579 | 7972 ft | 124 kts | 11° |
| 2026-04-25 22:15 | 29.93577 | -98.18300 | 7977 ft | 124 kts | 13° |
| 2026-04-25 22:16 | 29.95234 | -98.17743 | 7977 ft | 124 kts | 13° |
| 2026-04-25 22:16 | 29.96066 | -98.17463 | 7973 ft | 125 kts | 11° |
| 2026-04-25 22:16 | 29.96885 | -98.17187 | 7979 ft | 124 kts | 12° |
| 2026-04-25 22:16 | 29.97702 | -98.16911 | 7982 ft | 122 kts | 13° |
| 2026-04-25 22:17 | 29.98519 | -98.16638 | 7978 ft | 122 kts | 13° |
| 2026-04-25 22:17 | 29.99337 | -98.16363 | 7971 ft | 123 kts | 12° |
| 2026-04-25 22:17 | 30.00155 | -98.16086 | 7979 ft | 123 kts | 12° |
| 2026-04-25 22:17 | 30.00972 | -98.15811 | 7979 ft | 122 kts | 13° |
| 2026-04-25 22:18 | 30.01786 | -98.15538 | 7979 ft | 122 kts | 12° |
| 2026-04-25 22:18 | 30.02606 | -98.15263 | 7975 ft | 123 kts | 12° |
| 2026-04-25 22:18 | 30.03422 | -98.14987 | 7983 ft | 122 kts | 13° |
| 2026-04-25 22:18 | 30.04227 | -98.14715 | 7977 ft | 123 kts | 12° |
| 2026-04-25 22:19 | 30.05046 | -98.14440 | 7978 ft | 123 kts | 12° |
| 2026-04-25 22:19 | 30.05876 | -98.14161 | 7983 ft | 125 kts | 13° |
| 2026-04-25 22:19 | 30.06708 | -98.13879 | 7984 ft | 124 kts | 14° |
| 2026-04-25 22:19 | 30.07535 | -98.13600 | 7980 ft | 124 kts | 12° |
| 2026-04-25 22:20 | 30.08370 | -98.13320 | 7976 ft | 125 kts | 13° |
| 2026-04-25 22:20 | 30.09202 | -98.13040 | 7974 ft | 124 kts | 13° |
| 2026-04-25 22:20 | 30.10030 | -98.12761 | 7975 ft | 123 kts | 14° |
| 2026-04-25 22:20 | 30.10855 | -98.12483 | 7973 ft | 124 kts | 13° |
| 2026-04-25 22:21 | 30.11641 | -98.12073 | 7969 ft | 128 kts | 42° |
| 2026-04-25 22:21 | 30.12241 | -98.11350 | 7977 ft | 126 kts | 44° |
| 2026-04-25 22:21 | 30.12854 | -98.10638 | 7979 ft | 124 kts | 45° |
| 2026-04-25 22:21 | 30.13460 | -98.09930 | 7977 ft | 124 kts | 45° |
| 2026-04-25 22:22 | 30.14068 | -98.09216 | 7970 ft | 125 kts | 45° |
| 2026-04-25 22:22 | 30.14674 | -98.08503 | 7973 ft | 125 kts | 45° |
| 2026-04-25 22:22 | 30.15277 | -98.07795 | 7979 ft | 123 kts | 44° |
| 2026-04-25 22:22 | 30.15881 | -98.07087 | 7976 ft | 124 kts | 43° |
| 2026-04-25 22:23 | 30.16488 | -98.06375 | 7978 ft | 125 kts | 44° |
| 2026-04-25 22:23 | 30.17095 | -98.05662 | 7979 ft | 124 kts | 44° |
| 2026-04-25 22:23 | 30.17688 | -98.04964 | 7980 ft | 124 kts | 44° |
| 2026-04-25 22:23 | 30.18300 | -98.04246 | 7975 ft | 126 kts | 44° |
| 2026-04-25 22:24 | 30.18919 | -98.03520 | 7977 ft | 127 kts | 44° |
| 2026-04-25 22:24 | 30.19536 | -98.02795 | 7979 ft | 126 kts | 44° |
| 2026-04-25 22:24 | 30.20153 | -98.02069 | 7973 ft | 127 kts | 44° |
| 2026-04-25 22:24 | 30.20772 | -98.01342 | 7970 ft | 127 kts | 44° |
| 2026-04-25 22:25 | 30.21394 | -98.00610 | 7976 ft | 127 kts | 45° |
| 2026-04-25 22:25 | 30.22006 | -97.99891 | 7978 ft | 126 kts | 45° |
| 2026-04-25 22:25 | 30.22622 | -97.99168 | 7972 ft | 126 kts | 44° |
| 2026-04-25 22:25 | 30.23236 | -97.98445 | 7973 ft | 126 kts | 43° |
| 2026-04-25 22:26 | 30.23854 | -97.97717 | 7996 ft | 127 kts | 44° |
| 2026-04-25 22:26 | 30.24466 | -97.96995 | 7998 ft | 124 kts | 44° |
| 2026-04-25 22:26 | 30.25075 | -97.96280 | 7994 ft | 124 kts | 45° |
| 2026-04-25 22:26 | 30.25686 | -97.95563 | 7991 ft | 126 kts | 46° |
| 2026-04-25 22:27 | 30.26298 | -97.94841 | 7993 ft | 126 kts | 45° |
| 2026-04-25 22:27 | 30.26902 | -97.94129 | 8002 ft | 125 kts | 46° |
| 2026-04-25 22:27 | 30.27515 | -97.93407 | 7998 ft | 126 kts | 45° |
| 2026-04-25 22:27 | 30.28133 | -97.92680 | 7997 ft | 127 kts | 45° |
| 2026-04-25 22:28 | 30.28750 | -97.91952 | 8000 ft | 127 kts | 45° |
| 2026-04-25 22:28 | 30.29365 | -97.91226 | 8004 ft | 126 kts | 46° |
| 2026-04-25 22:28 | 30.29982 | -97.90499 | 8003 ft | 127 kts | 46° |
| 2026-04-25 22:28 | 30.30602 | -97.89771 | 8006 ft | 128 kts | 46° |
| 2026-04-25 22:29 | 30.31225 | -97.89034 | 8009 ft | 128 kts | 46° |
| 2026-04-25 22:29 | 30.31858 | -97.88285 | 7914 ft | 135 kts | 46° |
| 2026-04-25 22:29 | 30.32535 | -97.87482 | 7727 ft | 144 kts | 46° |
| 2026-04-25 22:30 | 30.33968 | -97.85790 | 7315 ft | 149 kts | 47° |
| 2026-04-25 22:30 | 30.34702 | -97.84925 | 7114 ft | 151 kts | 47° |
| 2026-04-25 22:30 | 30.35445 | -97.84048 | 6910 ft | 154 kts | 47° |
| 2026-04-25 22:30 | 30.35952 | -97.83447 | 6767 ft | 154 kts | 47° |
| 2026-04-25 22:31 | 30.36941 | -97.82279 | 6495 ft | 153 kts | 48° |
| 2026-04-25 22:31 | 30.37677 | -97.81410 | 6298 ft | 150 kts | 48° |
| 2026-04-25 22:31 | 30.38400 | -97.80555 | 6099 ft | 148 kts | 49° |
| 2026-04-25 22:31 | 30.39113 | -97.79712 | 5905 ft | 146 kts | 48° |
| 2026-04-25 22:32 | 30.39826 | -97.78870 | 5712 ft | 147 kts | 50° |
| 2026-04-25 22:32 | 30.40539 | -97.78026 | 5474 ft | 146 kts | 49° |
| 2026-04-25 22:32 | 30.41236 | -97.77196 | 5286 ft | 145 kts | 52° |
| 2026-04-25 22:32 | 30.41666 | -97.76188 | 5098 ft | 137 kts | 85° |
| 2026-04-25 22:33 | 30.41645 | -97.75140 | 4935 ft | 125 kts | 115° |
| 2026-04-25 22:33 | 30.41264 | -97.74267 | 4740 ft | 119 kts | 138° |
| 2026-04-25 22:33 | 30.40646 | -97.73679 | 4570 ft | 113 kts | 157° |
| 2026-04-25 22:33 | 30.39977 | -97.73215 | 4406 ft | 111 kts | 156° |
| 2026-04-25 22:34 | 30.39323 | -97.72756 | 4252 ft | 110 kts | 156° |
| 2026-04-25 22:34 | 30.38671 | -97.72299 | 4101 ft | 110 kts | 155° |
| 2026-04-25 22:34 | 30.38025 | -97.71846 | 3951 ft | 111 kts | 155° |
| 2026-04-25 22:34 | 30.37358 | -97.71381 | 3800 ft | 114 kts | 155° |
| 2026-04-25 22:35 | 30.36677 | -97.70904 | 3636 ft | 114 kts | 154° |
| 2026-04-25 22:35 | 30.36006 | -97.70431 | 3479 ft | 112 kts | 154° |
| 2026-04-25 22:35 | 30.35345 | -97.69969 | 3322 ft | 110 kts | 155° |
| 2026-04-25 22:35 | 30.34692 | -97.69511 | 3174 ft | 110 kts | 155° |
| 2026-04-25 22:36 | 30.34021 | -97.69051 | 3020 ft | 115 kts | 155° |
| 2026-04-25 22:36 | 30.33320 | -97.68589 | 2865 ft | 116 kts | 156° |
| 2026-04-25 22:36 | 30.32633 | -97.68103 | 2711 ft | 117 kts | 146° |
| 2026-04-25 22:36 | 30.32104 | -97.67383 | 2499 ft | 120 kts | 135° |
| 2026-04-25 22:37 | 30.31574 | -97.66718 | 2473 ft | 105 kts | 147° |
| 2026-04-25 22:37 | 30.30988 | -97.66272 | 2457 ft | 99 kts | 159° |
| 2026-04-25 22:37 | 30.30309 | -97.66150 | 2376 ft | 102 kts | 177° |
| 2026-04-25 22:37 | 30.29593 | -97.66084 | 2256 ft | 105 kts | 179° |
| 2026-04-25 22:38 | 30.28868 | -97.66044 | 2119 ft | 103 kts | 180° |
| 2026-04-25 22:38 | 30.28156 | -97.66016 | 1981 ft | 101 kts | 180° |
| 2026-04-25 22:38 | 30.27468 | -97.65992 | 1853 ft | 98 kts | 180° |
| 2026-04-25 22:38 | 30.26839 | -97.65971 | 1736 ft | 86 kts | 180° |
| 2026-04-25 22:39 | 30.26242 | -97.65956 | 1624 ft | 83 kts | 181° |
| 2026-04-25 22:39 | 30.25674 | -97.65939 | 1524 ft | 82 kts | 180° |
| 2026-04-25 22:39 | 30.25105 | -97.65923 | 1429 ft | 82 kts | 179° |
| 2026-04-25 22:39 | 30.24543 | -97.65906 | 1315 ft | 80 kts | 179° |
| 2026-04-25 22:40 | 30.23980 | -97.65889 | 1232 ft | 83 kts | 179° |
| 2026-04-25 22:40 | 30.23386 | -97.65875 | 1123 ft | 87 kts | 180° |
| 2026-04-25 22:40 | 30.22769 | -97.65867 | 968 ft | 87 kts | 178° |
| 2026-04-25 22:40 | 30.22177 | -97.65837 | 942 ft | 86 kts | 179° |
| 2026-04-25 22:41 | 30.21590 | -97.65827 | 775 ft | 81 kts | 180° |
| 2026-04-25 22:41 | 30.21040 | -97.65818 | 640 ft | 79 kts | 178° |
| 2026-04-25 22:41 | 30.20513 | -97.65792 | 535 ft | 71 kts | 179° |
| 2026-04-25 22:41 | 30.20063 | -97.65780 | 476 ft | 55 kts | 179° |
| 2026-04-25 22:42 | 30.19759 | -97.65775 | 482 ft | 33 kts | 178° |
| 2026-04-25 22:42 | 30.19591 | -97.65768 | 490 ft | 19 kts | 178° |
| 2026-04-25 22:42 | 30.19465 | -97.65773 | 495 ft | 17 kts | 208° |
| 2026-04-25 22:42 | 30.19423 | -97.65878 | 495 ft | 12 kts | 225° |
| 2026-04-25 22:43 | 30.19408 | -97.65958 | 495 ft | 10 kts | 219° |
| 2026-04-25 22:43 | 30.19353 | -97.65973 | 499 ft | 8 kts | 181° |
| 2026-04-25 22:43 | 30.19298 | -97.65973 | 501 ft | 8 kts | 178° |
| 2026-04-25 22:43 | 30.19231 | -97.65971 | 501 ft | 11 kts | 179° |
| 2026-04-25 22:44 | 30.19145 | -97.65968 | 502 ft | 14 kts | 179° |
| 2026-04-25 22:44 | 30.19047 | -97.65968 | 505 ft | 14 kts | 180° |
| 2026-04-25 22:44 | 30.18956 | -97.65964 | 508 ft | 13 kts | 178° |
| 2026-04-25 22:44 | 30.18863 | -97.65961 | 509 ft | 15 kts | 178° |
| 2026-04-25 22:45 | 30.18749 | -97.65958 | 507 ft | 17 kts | 179° |
| 2026-04-25 22:45 | 30.18630 | -97.65955 | 507 ft | 16 kts | 179° |
| 2026-04-25 22:45 | 30.18540 | -97.65956 | 510 ft | 11 kts | 196° |
| 2026-04-25 22:45 | 30.18514 | -97.66037 | 507 ft | 14 kts | 268° |
| 2026-04-25 22:46 | 30.18473 | -97.66100 | 506 ft | 9 kts | 177° |
| 2026-04-25 22:46 | 30.18417 | -97.66097 | 506 ft | 9 kts | 178° |
| 2026-04-25 22:46 | 30.18368 | -97.66132 | 506 ft | 11 kts | 244° |
| 2026-04-25 22:46 | 30.18325 | -97.66187 | 506 ft | 7 kts | 196° |
| 2026-04-25 22:47 | 30.18311 | -97.66163 | 507 ft | 4 kts | 33° |
| 2026-04-25 22:47 | 30.18329 | -97.66160 | 506 ft | 0 kts | 358° |